Lobo

Go HERE for most recent data if this page is not up to date.

Jump to table bottom
Date/Time Temp deg F RH % 24 Hr Snow (in) Snow Depth (in) H2O (in)
04/12 18:00 46.5 36 0.0 40.0 0.00
04/12 17:00 47.7 30 -0.0 40.1 0.00
04/12 16:00 47.8 28 0.0 40.1 0.00
04/12 15:00 49.2 34 0.0 40.5 0.00
04/12 14:00 47.1 33 0.0 40.8 0.00
04/12 13:00 47.0 38 0.0 40.9 0.00
04/12 12:00 47.0 34 0.0 41.1 0.00
04/12 11:00 45.7 35 0.0 41.2 0.00
04/12 10:00 42.4 38 0.0 41.3 0.00
04/12 09:00 39.4 44 0.0 41.3 0.00
04/12 08:00 35.2 48 0.0 41.3 0.00
04/12 07:00 33.3 58 0.0 41.4 0.00
04/12 06:00 32.6 58 0.0 41.4 0.00
04/12 05:00 32.9 59 0.0 41.4 0.00
04/12 04:00 34.2 53 0.0 41.3 0.00
04/12 03:00 35.2 51 0.0 41.4 0.00
04/12 02:00 35.1 51 0.0 41.5 0.00
04/12 01:00 34.9 49 0.0 41.5 0.00
04/12 00:00 34.9 49 0.0 41.4 0.00
04/11 23:00 34.8 48 0.0 41.5 0.00
04/11 22:00 35.6 43 0.0 41.4 0.00
04/11 21:00 35.5 41 0.0 41.5 0.00
04/11 20:00 36.3 41 0.0 41.4 0.00
04/11 19:00 38.0 42 0.0 41.5 0.00
04/11 18:00 40.0 37 0.0 41.4 0.00
04/11 17:00 41.7 34 0.0 41.3 0.00
04/11 16:00 42.2 31 0.0 41.4 0.00
04/11 15:00 42.2 26 -0.0 41.8 0.00
04/11 14:00 41.6 26 -0.0 42.2 0.00
04/11 13:00 41.2 23 -0.0 42.2 0.00
04/11 12:00 38.9 20 -0.0 42.7 0.00
04/11 11:00 36.0 30 -0.0 42.8 0.00
04/11 10:00 32.0 38 -0.0 42.8 0.00
04/11 09:00 30.2 39 0.0 42.9 0.00
04/11 08:00 27.9 40 0.0 42.9 0.00
04/11 07:00 27.0 41 0.0 43.0 0.00
04/11 06:00 27.9 41 0.0 43.0 0.00
04/11 05:00 27.9 39 0.0 43.0 0.00
04/11 04:00 28.8 39 0.0 43.0 0.00
04/11 03:00 28.5 35 0.0 43.0 0.00
04/11 02:00 28.1 39 0.0 43.1 0.00
04/11 01:00 28.6 38 0.0 43.0 0.00
04/11 00:00 28.6 39 0.0 43.0 0.00
.